^^
Station Historical Data
Daily Summary for April 4, 2017 Units:  Both    English   Metric
« Previous Day
Next Day »
Daily Weekly Monthly Yearly Custom
  High: Low: Average:
Temperature: 87.8 °F /  31 °C 56.1 °F /  13.4 °C 70.8 °F /  21.6 °C
Dew Point: 48.4 °F /  9.1 °C 32.2 °F /  0.1 °C 40.4 °F /  4.7 °C
Humidity: 67% 14% 36%
Wind Speed: 10.1mph /  16.3km/h - 1mph /  1.6km/h
Wind Gust: 15.0mph /  24.1km/h - -
Wind- - East
Pressure: 30.42 in /  1030 hPa 30.29 in /  1025.6 hPa -
Precipitation: 0.00 in /  0 mm    
Historical Graphs
 
 
Tabular Data for April 4, 2017
Time Temperature Dew Point Pressure Wind Wind Speed Wind Gust Humidity Rainfall Rate (Hourly) solar Conditions
00:01 61.0 °F /  16.1 °C 38.8 °F /  3.8 °C 30.39in /  1029hPa Calm   3.0mph /  4.8km/h 44% 0.00in /  0mm 0.0 W/m2
00:08 61.0 °F /  16.1 °C 38.8 °F /  3.8 °C 30.39in /  1029hPa NE 0.9mph /  1.4km/h 3.0mph /  4.8km/h 44% 0.00in /  0mm 0.0 W/m2
00:14 61.2 °F /  16.2 °C 39.0 °F /  3.9 °C 30.39in /  1029hPa Calm   2.0mph /  3.2km/h 44% 0.00in /  0mm 0.0 W/m2
00:20 61.2 °F /  16.2 °C 39.0 °F /  3.9 °C 30.39in /  1029hPa Calm   3.0mph /  4.8km/h 44% 0.00in /  0mm 0.0 W/m2
00:26 61.2 °F /  16.2 °C 39.0 °F /  3.9 °C 30.39in /  1029hPa Calm   1.0mph /  1.6km/h 44% 0.00in /  0mm 0.0 W/m2
00:32 61.2 °F /  16.2 °C 39.0 °F /  3.9 °C 30.39in /  1029hPa Calm   1.0mph /  1.6km/h 44% 0.00in /  0mm 0.0 W/m2
00:38 61.0 °F /  16.1 °C 38.8 °F /  3.8 °C 30.39in /  1029hPa East 2.0mph /  3.2km/h 3.0mph /  4.8km/h 44% 0.00in /  0mm 0.0 W/m2
00:44 61.0 °F /  16.1 °C 38.8 °F /  3.8 °C 30.39in /  1029hPa ENE 0.9mph /  1.4km/h 3.0mph /  4.8km/h 44% 0.00in /  0mm 0.0 W/m2
00:50 61.0 °F /  16.1 °C 38.8 °F /  3.8 °C 30.39in /  1029hPa Calm   3.0mph /  4.8km/h 44% 0.00in /  0mm 0.0 W/m2
00:57 60.8 °F /  16 °C 38.7 °F /  3.7 °C 30.39in /  1029hPa East 0.9mph /  1.4km/h 4.0mph /  6.4km/h 44% 0.00in /  0mm 0.0 W/m2
01:03 60.6 °F /  15.9 °C 39.2 °F /  4 °C 30.39in /  1029hPa Calm   2.0mph /  3.2km/h 45% 0.00in /  0mm 0.0 W/m2
01:09 60.4 °F /  15.8 °C 39.0 °F /  3.9 °C 30.39in /  1029hPa NE 0.9mph /  1.4km/h 2.0mph /  3.2km/h 45% 0.00in /  0mm 0.0 W/m2
01:15 60.4 °F /  15.8 °C 39.6 °F /  4.2 °C 30.39in /  1029hPa Calm   4.0mph /  6.4km/h 46% 0.00in /  0mm 0.0 W/m2
01:21 60.3 °F /  15.7 °C 39.4 °F /  4.1 °C 30.39in /  1029hPa ENE 0.9mph /  1.4km/h 2.0mph /  3.2km/h 46% 0.00in /  0mm 0.0 W/m2
01:27 60.1 °F /  15.6 °C 39.7 °F /  4.3 °C 30.40in /  1029.3hPa Calm   3.0mph /  4.8km/h 47% 0.00in /  0mm 0.0 W/m2
01:33 60.1 °F /  15.6 °C 39.7 °F /  4.3 °C 30.39in /  1029hPa Calm   4.0mph /  6.4km/h 47% 0.00in /  0mm 0.0 W/m2
01:40 59.7 °F /  15.4 °C 39.9 °F /  4.4 °C 30.39in /  1029hPa ENE 4.0mph /  6.4km/h 5.0mph /  8km/h 48% 0.00in /  0mm 0.0 W/m2
01:46 59.7 °F /  15.4 °C 39.9 °F /  4.4 °C 30.39in /  1029hPa East 0.9mph /  1.4km/h 5.0mph /  8km/h 48% 0.00in /  0mm 0.0 W/m2
01:52 59.5 °F /  15.3 °C 40.3 °F /  4.6 °C 30.39in /  1029hPa ENE 2.0mph /  3.2km/h 4.0mph /  6.4km/h 49% 0.00in /  0mm 0.0 W/m2
01:58 59.4 °F /  15.2 °C 40.3 °F /  4.6 °C 30.39in /  1029hPa Calm   2.0mph /  3.2km/h 49% 0.00in /  0mm 0.0 W/m2
02:04 59.2 °F /  15.1 °C 40.1 °F /  4.5 °C 30.39in /  1029hPa Calm   4.0mph /  6.4km/h 49% 0.00in /  0mm 0.0 W/m2
02:10 59.2 °F /  15.1 °C 40.6 °F /  4.8 °C 30.38in /  1028.7hPa Calm   1.0mph /  1.6km/h 50% 0.00in /  0mm 0.0 W/m2
02:16 59.0 °F /  15 °C 40.5 °F /  4.7 °C 30.38in /  1028.7hPa Calm   1.0mph /  1.6km/h 50% 0.00in /  0mm 0.0 W/m2
02:22 58.8 °F /  14.9 °C 40.8 °F /  4.9 °C 30.38in /  1028.7hPa Calm   1.0mph /  1.6km/h 51% 0.00in /  0mm 0.0 W/m2
02:29 58.8 °F /  14.9 °C 40.8 °F /  4.9 °C 30.38in /  1028.7hPa ENE 0.9mph /  1.4km/h 1.0mph /  1.6km/h 51% 0.00in /  0mm 0.0 W/m2
02:35 58.6 °F /  14.8 °C 40.6 °F /  4.8 °C 30.38in /  1028.7hPa Calm   1.0mph /  1.6km/h 51% 0.00in /  0mm 0.0 W/m2
02:41 58.5 °F /  14.7 °C 40.8 °F /  4.9 °C 30.38in /  1028.7hPa Calm   1.0mph /  1.6km/h 52% 0.00in /  0mm 0.0 W/m2
02:47 58.5 °F /  14.7 °C 40.8 °F /  4.9 °C 30.38in /  1028.7hPa Calm   2.0mph /  3.2km/h 52% 0.00in /  0mm 0.0 W/m2
02:53 58.3 °F /  14.6 °C 40.8 °F /  4.9 °C 30.38in /  1028.7hPa Calm   4.0mph /  6.4km/h 52% 0.00in /  0mm 0.0 W/m2
02:59 58.3 °F /  14.6 °C 40.8 °F /  4.9 °C 30.38in /  1028.7hPa Calm   3.0mph /  4.8km/h 52% 0.00in /  0mm 0.0 W/m2
03:05 58.3 °F /  14.6 °C 41.2 °F /  5.1 °C 30.38in /  1028.7hPa Calm     53% 0.00in /  0mm 0.0 W/m2
03:11 58.1 °F /  14.5 °C 41.0 °F /  5 °C 30.38in /  1028.7hPa ENE 0.9mph /  1.4km/h 2.0mph /  3.2km/h 53% 0.00in /  0mm 0.0 W/m2
03:18 58.1 °F /  14.5 °C 41.5 °F /  5.3 °C 30.38in /  1028.7hPa Calm     54% 0.00in /  0mm 0.0 W/m2
03:24 57.9 °F /  14.4 °C 41.4 °F /  5.2 °C 30.38in /  1028.7hPa Calm   2.0mph /  3.2km/h 54% 0.00in /  0mm 0.0 W/m2
03:30 57.9 °F /  14.4 °C 41.4 °F /  5.2 °C 30.38in /  1028.7hPa Calm   1.0mph /  1.6km/h 54% 0.00in /  0mm 0.0 W/m2
03:36 57.9 °F /  14.4 °C 41.4 °F /  5.2 °C 30.38in /  1028.7hPa Calm   4.0mph /  6.4km/h 54% 0.00in /  0mm 0.0 W/m2
03:42 57.9 °F /  14.4 °C 41.4 °F /  5.2 °C 30.38in /  1028.7hPa Calm   4.0mph /  6.4km/h 54% 0.00in /  0mm 0.0 W/m2
03:48 57.9 °F /  14.4 °C 41.9 °F /  5.5 °C 30.38in /  1028.7hPa East 0.9mph /  1.4km/h 2.0mph /  3.2km/h 55% 0.00in /  0mm 0.0 W/m2
03:54 57.9 °F /  14.4 °C 41.9 °F /  5.5 °C 30.38in /  1028.7hPa Calm   3.0mph /  4.8km/h 55% 0.00in /  0mm 0.0 W/m2
04:01 57.9 °F /  14.4 °C 41.9 °F /  5.5 °C 30.38in /  1028.7hPa East 0.9mph /  1.4km/h 1.0mph /  1.6km/h 55% 0.00in /  0mm 0.0 W/m2
04:07 57.7 °F /  14.3 °C 42.1 °F /  5.6 °C 30.38in /  1028.7hPa Calm   2.0mph /  3.2km/h 56% 0.00in /  0mm 0.0 W/m2
04:13 57.9 °F /  14.4 °C 42.3 °F /  5.7 °C 30.38in /  1028.7hPa Calm   2.0mph /  3.2km/h 56% 0.00in /  0mm 0.0 W/m2
04:19 57.9 °F /  14.4 °C 42.3 °F /  5.7 °C 30.38in /  1028.7hPa Calm   2.0mph /  3.2km/h 56% 0.00in /  0mm 0.0 W/m2
04:25 57.9 °F /  14.4 °C 42.3 °F /  5.7 °C 30.38in /  1028.7hPa NE 0.9mph /  1.4km/h 2.0mph /  3.2km/h 56% 0.00in /  0mm 0.0 W/m2
04:31 57.9 °F /  14.4 °C 42.3 °F /  5.7 °C 30.38in /  1028.7hPa East 0.9mph /  1.4km/h 2.0mph /  3.2km/h 56% 0.00in /  0mm 0.0 W/m2
04:37 57.9 °F /  14.4 °C 42.3 °F /  5.7 °C 30.38in /  1028.7hPa Calm   3.0mph /  4.8km/h 56% 0.00in /  0mm 0.0 W/m2
04:43 57.9 °F /  14.4 °C 42.8 °F /  6 °C 30.38in /  1028.7hPa East 2.0mph /  3.2km/h 3.0mph /  4.8km/h 57% 0.00in /  0mm 0.0 W/m2
04:50 57.9 °F /  14.4 °C 42.8 °F /  6 °C 30.38in /  1028.7hPa Calm   1.0mph /  1.6km/h 57% 0.00in /  0mm 0.0 W/m2
04:56 57.7 °F /  14.3 °C 43.0 °F /  6.1 °C 30.38in /  1028.7hPa Calm   3.0mph /  4.8km/h 58% 0.00in /  0mm 0.0 W/m2
05:02 57.7 °F /  14.3 °C 42.6 °F /  5.9 °C 30.38in /  1028.7hPa East 0.9mph /  1.4km/h 2.0mph /  3.2km/h 57% 0.00in /  0mm 0.0 W/m2
05:08 57.7 °F /  14.3 °C 43.0 °F /  6.1 °C 30.38in /  1028.7hPa Calm   1.0mph /  1.6km/h 58% 0.00in /  0mm 0.0 W/m2
05:14 57.7 °F /  14.3 °C 43.0 °F /  6.1 °C 30.38in /  1028.7hPa Calm   1.0mph /  1.6km/h 58% 0.00in /  0mm 0.0 W/m2
05:20 57.6 °F /  14.2 °C 43.0 °F /  6.1 °C 30.38in /  1028.7hPa Calm   1.0mph /  1.6km/h 58% 0.00in /  0mm 0.0 W/m2
05:26 57.6 °F /  14.2 °C 43.0 °F /  6.1 °C 30.38in /  1028.7hPa Calm   1.0mph /  1.6km/h 58% 0.00in /  0mm 0.0 W/m2
05:32 57.4 °F /  14.1 °C 43.2 °F /  6.2 °C 30.38in /  1028.7hPa ENE 0.9mph /  1.4km/h 1.0mph /  1.6km/h 59% 0.00in /  0mm 0.0 W/m2
05:39 57.2 °F /  14 °C 43.0 °F /  6.1 °C 30.39in /  1029hPa East 2.0mph /  3.2km/h 2.0mph /  3.2km/h 59% 0.00in /  0mm 0.0 W/m2
05:45 57.0 °F /  13.9 °C 42.8 °F /  6 °C 30.39in /  1029hPa Calm   2.0mph /  3.2km/h 59% 0.00in /  0mm 0.0 W/m2
05:51 56.8 °F /  13.8 °C 43.2 °F /  6.2 °C 30.39in /  1029hPa Calm   2.0mph /  3.2km/h 60% 0.00in /  0mm 0.0 W/m2
05:57 56.8 °F /  13.8 °C 43.2 °F /  6.2 °C 30.39in /  1029hPa Calm   2.0mph /  3.2km/h 60% 0.00in /  0mm 0.0 W/m2
06:03 56.7 °F /  13.7 °C 43.3 °F /  6.3 °C 30.39in /  1029hPa Calm   1.0mph /  1.6km/h 61% 0.00in /  0mm 5.0 W/m2
06:09 56.5 °F /  13.6 °C 43.7 °F /  6.5 °C 30.39in /  1029hPa Calm   4.0mph /  6.4km/h 62% 0.00in /  0mm 9.0 W/m2
06:16 56.3 °F /  13.5 °C 43.5 °F /  6.4 °C 30.40in /  1029.3hPa Calm   3.0mph /  4.8km/h 62% 0.00in /  0mm 12.0 W/m2
06:22 56.1 °F /  13.4 °C 43.7 °F /  6.5 °C 30.40in /  1029.3hPa SE 0.9mph /  1.4km/h 3.0mph /  4.8km/h 63% 0.00in /  0mm 14.0 W/m2
06:28 56.1 °F /  13.4 °C 43.7 °F /  6.5 °C 30.40in /  1029.3hPa Calm   2.0mph /  3.2km/h 63% 0.00in /  0mm 18.0 W/m2
06:34 56.5 °F /  13.6 °C 44.4 °F /  6.9 °C 30.40in /  1029.3hPa Calm   1.0mph /  1.6km/h 64% 0.00in /  0mm 21.0 W/m2
06:40 56.7 °F /  13.7 °C 44.6 °F /  7 °C 30.40in /  1029.3hPa Calm   1.0mph /  1.6km/h 64% 0.00in /  0mm 23.0 W/m2
06:46 57.0 °F /  13.9 °C 45.3 °F /  7.4 °C 30.40in /  1029.3hPa Calm   1.0mph /  1.6km/h 65% 0.00in /  0mm 26.0 W/m2
06:52 57.4 °F /  14.1 °C 46.0 °F /  7.8 °C 30.40in /  1029.3hPa Calm     66% 0.00in /  0mm 28.0 W/m2
06:58 57.7 °F /  14.3 °C 46.9 °F /  8.3 °C 30.41in /  1029.7hPa Calm   1.0mph /  1.6km/h 67% 0.00in /  0mm 30.0 W/m2
07:05 58.3 °F /  14.6 °C 46.6 °F /  8.1 °C 30.41in /  1029.7hPa Calm   1.0mph /  1.6km/h 65% 0.00in /  0mm 32.0 W/m2
07:11 59.2 °F /  15.1 °C 46.9 °F /  8.3 °C 30.41in /  1029.7hPa ENE 2.0mph /  3.2km/h 3.0mph /  4.8km/h 64% 0.00in /  0mm 33.0 W/m2
07:17 60.1 °F /  15.6 °C 47.5 °F /  8.6 °C 30.41in /  1029.7hPa Calm   3.0mph /  4.8km/h 63% 0.00in /  0mm 35.0 W/m2
07:23 61.0 °F /  16.1 °C 47.8 °F /  8.8 °C 30.41in /  1029.7hPa Calm   2.0mph /  3.2km/h 62% 0.00in /  0mm 37.0 W/m2
07:29 61.9 °F /  16.6 °C 47.5 °F /  8.6 °C 30.42in /  1030hPa NE 2.0mph /  3.2km/h 5.0mph /  8km/h 59% 0.00in /  0mm 39.0 W/m2
07:35 63.0 °F /  17.2 °C 46.9 °F /  8.3 °C 30.42in /  1030hPa East 2.0mph /  3.2km/h 3.0mph /  4.8km/h 56% 0.00in /  0mm 40.0 W/m2
07:42 64.4 °F /  18 °C 46.9 °F /  8.3 °C 30.42in /  1030hPa ESE 0.9mph /  1.4km/h 6.0mph /  9.7km/h 53% 0.00in /  0mm 42.0 W/m2
07:48 65.5 °F /  18.6 °C 46.4 °F /  8 °C 30.42in /  1030hPa ESE 2.0mph /  3.2km/h 8.0mph /  12.9km/h 50% 0.00in /  0mm 44.0 W/m2
07:54 66.6 °F /  19.2 °C 46.8 °F /  8.2 °C 30.42in /  1030hPa Calm   3.0mph /  4.8km/h 49% 0.00in /  0mm 44.0 W/m2
08:00 67.5 °F /  19.7 °C 47.1 °F /  8.4 °C 30.42in /  1030hPa SE 0.9mph /  1.4km/h 5.0mph /  8km/h 48% 0.00in /  0mm 46.0 W/m2
08:06 68.2 °F /  20.1 °C 46.6 °F /  8.1 °C 30.42in /  1030hPa Calm   3.0mph /  4.8km/h 46% 0.00in /  0mm 47.0 W/m2
08:12 68.5 °F /  20.3 °C 46.4 °F /  8 °C 30.42in /  1030hPa East 0.9mph /  1.4km/h 4.0mph /  6.4km/h 45% 0.00in /  0mm 49.0 W/m2
08:18 69.1 °F /  20.6 °C 46.2 °F /  7.9 °C 30.42in /  1030hPa Calm   4.0mph /  6.4km/h 44% 0.00in /  0mm 49.0 W/m2
08:25 69.6 °F /  20.9 °C 46.8 °F /  8.2 °C 30.42in /  1030hPa NE 2.9mph /  4.7km/h 5.0mph /  8km/h 44% 0.00in /  0mm 53.0 W/m2
08:31 70.0 °F /  21.1 °C 46.4 °F /  8 °C 30.42in /  1030hPa NE 0.9mph /  1.4km/h 3.0mph /  4.8km/h 43% 0.00in /  0mm 53.0 W/m2
08:37 70.3 °F /  21.3 °C 46.8 °F /  8.2 °C 30.42in /  1030hPa East 6.0mph /  9.7km/h 6.0mph /  9.7km/h 43% 0.00in /  0mm 56.0 W/m2
08:43 70.9 °F /  21.6 °C 47.3 °F /  8.5 °C 30.42in /  1030hPa ESE 2.0mph /  3.2km/h 4.0mph /  6.4km/h 43% 0.00in /  0mm 570.0 W/m2
08:49 71.4 °F /  21.9 °C 47.1 °F /  8.4 °C 30.42in /  1030hPa Calm   1.0mph /  1.6km/h 42% 0.00in /  0mm 587.0 W/m2
08:55 72.0 °F /  22.2 °C 47.7 °F /  8.7 °C 30.41in /  1029.7hPa Calm     42% 0.00in /  0mm 610.0 W/m2
09:02 73.0 °F /  22.8 °C 47.3 °F /  8.5 °C 30.42in /  1030hPa NNE 0.9mph /  1.4km/h 2.0mph /  3.2km/h 40% 0.00in /  0mm 629.0 W/m2
09:08 74.1 °F /  23.4 °C 48.2 °F /  9 °C 30.41in /  1029.7hPa Calm   1.0mph /  1.6km/h 40% 0.00in /  0mm 647.0 W/m2
09:14 75.2 °F /  24 °C 47.8 °F /  8.8 °C 30.41in /  1029.7hPa Calm   1.0mph /  1.6km/h 38% 0.00in /  0mm 664.0 W/m2
09:20 76.3 °F /  24.6 °C 47.3 °F /  8.5 °C 30.41in /  1029.7hPa NNE 2.9mph /  4.7km/h 3.0mph /  4.8km/h 36% 0.00in /  0mm 682.0 W/m2
09:26 77.0 °F /  25 °C 47.3 °F /  8.5 °C 30.41in /  1029.7hPa Calm     35% 0.00in /  0mm 701.0 W/m2
09:32 77.4 °F /  25.2 °C 48.4 °F /  9.1 °C 30.41in /  1029.7hPa NNE 2.0mph /  3.2km/h 2.0mph /  3.2km/h 36% 0.00in /  0mm 719.0 W/m2
09:38 78.4 °F /  25.8 °C 46.9 °F /  8.3 °C 30.40in /  1029.3hPa Calm   2.0mph /  3.2km/h 33% 0.00in /  0mm 735.0 W/m2
09:45 79.0 °F /  26.1 °C 47.5 °F /  8.6 °C 30.40in /  1029.3hPa NNE 2.0mph /  3.2km/h 4.0mph /  6.4km/h 33% 0.00in /  0mm 752.0 W/m2
09:51 79.3 °F /  26.3 °C 46.9 °F /  8.3 °C 30.40in /  1029.3hPa Calm   4.0mph /  6.4km/h 32% 0.00in /  0mm 763.0 W/m2
09:57 79.9 °F /  26.6 °C 45.7 °F /  7.6 °C 30.40in /  1029.3hPa NNW 2.9mph /  4.7km/h 9.0mph /  14.5km/h 30% 0.00in /  0mm 779.0 W/m2
10:03 80.1 °F /  26.7 °C 46.8 °F /  8.2 °C 30.40in /  1029.3hPa East 2.0mph /  3.2km/h 7.0mph /  11.3km/h 31% 0.00in /  0mm 789.0 W/m2
10:09 80.4 °F /  26.9 °C 46.9 °F /  8.3 °C 30.40in /  1029.3hPa ESE 2.9mph /  4.7km/h 5.0mph /  8km/h 31% 0.00in /  0mm 803.0 W/m2
10:15 80.8 °F /  27.1 °C 46.4 °F /  8 °C 30.40in /  1029.3hPa Calm   6.0mph /  9.7km/h 30% 0.00in /  0mm 814.0 W/m2
10:21 81.0 °F /  27.2 °C 46.6 °F /  8.1 °C 30.39in /  1029hPa Calm   5.0mph /  8km/h 30% 0.00in /  0mm 821.0 W/m2
10:28 81.1 °F /  27.3 °C 45.9 °F /  7.7 °C 30.39in /  1029hPa ESE 2.9mph /  4.7km/h 9.0mph /  14.5km/h 29% 0.00in /  0mm 835.0 W/m2
10:34 81.3 °F /  27.4 °C 46.9 °F /  8.3 °C 30.38in /  1028.7hPa East 0.9mph /  1.4km/h 6.0mph /  9.7km/h 30% 0.00in /  0mm 847.0 W/m2
10:40 81.9 °F /  27.7 °C 45.5 °F /  7.5 °C 30.38in /  1028.7hPa ESE 4.0mph /  6.4km/h 11.0mph /  17.7km/h 28% 0.00in /  0mm 854.0 W/m2
10:46 82.2 °F /  27.9 °C 45.9 °F /  7.7 °C 30.38in /  1028.7hPa NE 0.9mph /  1.4km/h 7.0mph /  11.3km/h 28% 0.00in /  0mm 867.0 W/m2
10:52 82.8 °F /  28.2 °C 45.3 °F /  7.4 °C 30.37in /  1028.3hPa ENE 2.0mph /  3.2km/h 15.0mph /  24.1km/h 27% 0.00in /  0mm 875.0 W/m2
10:58 82.8 °F /  28.2 °C 45.3 °F /  7.4 °C 30.37in /  1028.3hPa East 0.9mph /  1.4km/h 6.0mph /  9.7km/h 27% 0.00in /  0mm 881.0 W/m2
11:04 82.9 °F /  28.3 °C 44.6 °F /  7 °C 30.37in /  1028.3hPa ESE 4.9mph /  7.9km/h 11.0mph /  17.7km/h 26% 0.00in /  0mm 884.0 W/m2
11:11 82.8 °F /  28.2 °C 44.4 °F /  6.9 °C 30.37in /  1028.3hPa East 4.9mph /  7.9km/h 12.0mph /  19.3km/h 26% 0.00in /  0mm 889.0 W/m2
11:17 82.8 °F /  28.2 °C 44.4 °F /  6.9 °C 30.37in /  1028.3hPa SE 2.9mph /  4.7km/h 9.0mph /  14.5km/h 26% 0.00in /  0mm 895.0 W/m2
11:23 83.1 °F /  28.4 °C 44.6 °F /  7 °C 30.36in /  1028hPa ESE 2.9mph /  4.7km/h 8.0mph /  12.9km/h 26% 0.00in /  0mm 893.0 W/m2
11:29 83.1 °F /  28.4 °C 44.6 °F /  7 °C 30.36in /  1028hPa SE 0.9mph /  1.4km/h 6.0mph /  9.7km/h 26% 0.00in /  0mm 898.0 W/m2
11:35 83.5 °F /  28.6 °C 45.0 °F /  7.2 °C 30.36in /  1028hPa Calm   6.0mph /  9.7km/h 26% 0.00in /  0mm 898.0 W/m2
11:41 83.8 °F /  28.8 °C 44.2 °F /  6.8 °C 30.36in /  1028hPa Calm   7.0mph /  11.3km/h 25% 0.00in /  0mm 902.0 W/m2
11:47 84.4 °F /  29.1 °C 43.7 °F /  6.5 °C 30.35in /  1027.7hPa East 0.9mph /  1.4km/h 7.0mph /  11.3km/h 24% 0.00in /  0mm 905.0 W/m2
11:53 84.4 °F /  29.1 °C 43.7 °F /  6.5 °C 30.35in /  1027.7hPa East 2.9mph /  4.7km/h 8.0mph /  12.9km/h 24% 0.00in /  0mm 905.0 W/m2
12:00 84.6 °F /  29.2 °C 42.6 °F /  5.9 °C 30.34in /  1027.3hPa North 4.0mph /  6.4km/h 11.0mph /  17.7km/h 23% 0.00in /  0mm 902.0 W/m2
12:06 84.4 °F /  29.1 °C 43.7 °F /  6.5 °C 30.34in /  1027.3hPa SE 2.9mph /  4.7km/h 5.0mph /  8km/h 24% 0.00in /  0mm 896.0 W/m2
12:12 84.6 °F /  29.2 °C 42.6 °F /  5.9 °C 30.34in /  1027.3hPa ENE 10.1mph /  16.3km/h 11.0mph /  17.7km/h 23% 0.00in /  0mm 900.0 W/m2
12:18 84.9 °F /  29.4 °C 43.0 °F /  6.1 °C 30.34in /  1027.3hPa ESE 0.9mph /  1.4km/h 5.0mph /  8km/h 23% 0.00in /  0mm 895.0 W/m2
12:24 84.9 °F /  29.4 °C 43.0 °F /  6.1 °C 30.34in /  1027.3hPa NNE 6.9mph /  11.1km/h 13.0mph /  20.9km/h 23% 0.00in /  0mm 886.0 W/m2
12:30 85.3 °F /  29.6 °C 43.3 °F /  6.3 °C 30.33in /  1027hPa NE 0.9mph /  1.4km/h 4.0mph /  6.4km/h 23% 0.00in /  0mm 886.0 W/m2
12:36 85.3 °F /  29.6 °C 42.1 °F /  5.6 °C 30.33in /  1027hPa NNE 6.9mph /  11.1km/h 10.0mph /  16.1km/h 22% 0.00in /  0mm 884.0 W/m2
12:43 85.3 °F /  29.6 °C 39.7 °F /  4.3 °C 30.32in /  1026.6hPa NNE 2.0mph /  3.2km/h 10.0mph /  16.1km/h 20% 0.00in /  0mm 881.0 W/m2
12:49 85.1 °F /  29.5 °C 40.8 °F /  4.9 °C 30.32in /  1026.6hPa NE 0.9mph /  1.4km/h 6.0mph /  9.7km/h 21% 0.00in /  0mm 860.0 W/m2
12:55 85.3 °F /  29.6 °C 41.0 °F /  5 °C 30.32in /  1026.6hPa SSE 4.0mph /  6.4km/h 8.0mph /  12.9km/h 21% 0.00in /  0mm 851.0 W/m2
13:01 85.1 °F /  29.5 °C 41.9 °F /  5.5 °C 30.32in /  1026.6hPa SE 2.9mph /  4.7km/h 13.0mph /  20.9km/h 22% 0.00in /  0mm 849.0 W/m2
13:07 85.5 °F /  29.7 °C 41.0 °F /  5 °C 30.32in /  1026.6hPa East 4.0mph /  6.4km/h 11.0mph /  17.7km/h 21% 0.00in /  0mm 846.0 W/m2
13:13 85.5 °F /  29.7 °C 42.3 °F /  5.7 °C 30.31in /  1026.3hPa ENE 0.9mph /  1.4km/h 8.0mph /  12.9km/h 22% 0.00in /  0mm 831.0 W/m2
13:19 85.8 °F /  29.9 °C 41.4 °F /  5.2 °C 30.31in /  1026.3hPa ENE 2.9mph /  4.7km/h 7.0mph /  11.3km/h 21% 0.00in /  0mm 826.0 W/m2
13:25 86.4 °F /  30.2 °C 41.9 °F /  5.5 °C 30.31in /  1026.3hPa ENE 4.9mph /  7.9km/h 11.0mph /  17.7km/h 21% 0.00in /  0mm 810.0 W/m2
13:32 85.8 °F /  29.9 °C 42.6 °F /  5.9 °C 30.30in /  1026hPa NNE 0.9mph /  1.4km/h 3.0mph /  4.8km/h 22% 0.00in /  0mm 798.0 W/m2
13:38 86.2 °F /  30.1 °C 42.8 °F /  6 °C 30.30in /  1026hPa East 4.9mph /  7.9km/h 9.0mph /  14.5km/h 22% 0.00in /  0mm 786.0 W/m2
13:44 86.4 °F /  30.2 °C 40.6 °F /  4.8 °C 30.30in /  1026hPa NNW 4.9mph /  7.9km/h 13.0mph /  20.9km/h 20% 0.00in /  0mm 779.0 W/m2
13:50 86.4 °F /  30.2 °C 41.9 °F /  5.5 °C 30.30in /  1026hPa Calm   6.0mph /  9.7km/h 21% 0.00in /  0mm 763.0 W/m2
13:56 86.5 °F /  30.3 °C 41.9 °F /  5.5 °C 30.30in /  1026hPa Calm   5.0mph /  8km/h 21% 0.00in /  0mm 742.0 W/m2
14:02 86.5 °F /  30.3 °C 40.6 °F /  4.8 °C 30.30in /  1026hPa NE 6.9mph /  11.1km/h 7.0mph /  11.3km/h 20% 0.00in /  0mm 728.0 W/m2
14:08 86.5 °F /  30.3 °C 40.6 °F /  4.8 °C 30.30in /  1026hPa NE 4.0mph /  6.4km/h 8.0mph /  12.9km/h 20% 0.00in /  0mm 715.0 W/m2
14:14 86.5 °F /  30.3 °C 40.6 °F /  4.8 °C 30.29in /  1025.6hPa SE 2.9mph /  4.7km/h 9.0mph /  14.5km/h 20% 0.00in /  0mm 700.0 W/m2
14:21 86.2 °F /  30.1 °C 40.5 °F /  4.7 °C 30.29in /  1025.6hPa Calm   6.0mph /  9.7km/h 20% 0.00in /  0mm 689.0 W/m2
14:27 86.4 °F /  30.2 °C 40.6 °F /  4.8 °C 30.29in /  1025.6hPa Calm   7.0mph /  11.3km/h 20% 0.00in /  0mm 668.0 W/m2
14:33 86.5 °F /  30.3 °C 40.6 °F /  4.8 °C 30.29in /  1025.6hPa ESE 4.9mph /  7.9km/h 6.0mph /  9.7km/h 20% 0.00in /  0mm 652.0 W/m2
14:39 86.4 °F /  30.2 °C 37.9 °F /  3.3 °C 30.29in /  1025.6hPa Calm   5.0mph /  8km/h 18% 0.00in /  0mm 633.0 W/m2
14:45 86.4 °F /  30.2 °C 39.2 °F /  4 °C 30.29in /  1025.6hPa SE 6.0mph /  9.7km/h 10.0mph /  16.1km/h 19% 0.00in /  0mm 613.0 W/m2
14:51 86.5 °F /  30.3 °C 37.9 °F /  3.3 °C 30.29in /  1025.6hPa Calm   2.0mph /  3.2km/h 18% 0.00in /  0mm 599.0 W/m2
14:57 86.7 °F /  30.4 °C 39.6 °F /  4.2 °C 30.29in /  1025.6hPa WNW 0.9mph /  1.4km/h 3.0mph /  4.8km/h 19% 0.00in /  0mm 582.0 W/m2
15:04 87.1 °F /  30.6 °C 38.5 °F /  3.6 °C 30.29in /  1025.6hPa ESE 2.0mph /  3.2km/h 4.0mph /  6.4km/h 18% 0.00in /  0mm 563.0 W/m2
15:10 87.3 °F /  30.7 °C 37.2 °F /  2.9 °C 30.29in /  1025.6hPa NE 4.9mph /  7.9km/h 12.0mph /  19.3km/h 17% 0.00in /  0mm 541.0 W/m2
15:16 87.1 °F /  30.6 °C 37.0 °F /  2.8 °C 30.29in /  1025.6hPa North 0.9mph /  1.4km/h 6.0mph /  9.7km/h 17% 0.00in /  0mm 524.0 W/m2
15:22 86.7 °F /  30.4 °C 35.2 °F /  1.8 °C 30.29in /  1025.6hPa Calm   6.0mph /  9.7km/h 16% 0.00in /  0mm 501.0 W/m2
15:28 87.1 °F /  30.6 °C 33.8 °F /  1 °C 30.29in /  1025.6hPa NNE 0.9mph /  1.4km/h 5.0mph /  8km/h 15% 0.00in /  0mm 480.0 W/m2
15:34 87.3 °F /  30.7 °C 34.0 °F /  1.1 °C 30.29in /  1025.6hPa ESE 8.1mph /  13km/h 8.1mph /  13km/h 15% 0.00in /  0mm 459.0 W/m2
15:40 87.3 °F /  30.7 °C 35.6 °F /  2 °C 30.29in /  1025.6hPa ESE 2.9mph /  4.7km/h 5.0mph /  8km/h 16% 0.00in /  0mm 439.0 W/m2
15:46 87.3 °F /  30.7 °C 35.6 °F /  2 °C 30.29in /  1025.6hPa Calm   3.0mph /  4.8km/h 16% 0.00in /  0mm 418.0 W/m2
15:53 87.3 °F /  30.7 °C 32.2 °F /  0.1 °C 30.29in /  1025.6hPa SE 0.9mph /  1.4km/h 4.0mph /  6.4km/h 14% 0.00in /  0mm 396.0 W/m2
15:59 87.3 °F /  30.7 °C 32.2 °F /  0.1 °C 30.29in /  1025.6hPa Calm   3.0mph /  4.8km/h 14% 0.00in /  0mm 369.0 W/m2
16:05 87.4 °F /  30.8 °C 34.2 °F /  1.2 °C 30.29in /  1025.6hPa ENE 0.9mph /  1.4km/h 3.0mph /  4.8km/h 15% 0.00in /  0mm 346.0 W/m2
16:11 87.8 °F /  31 °C 34.3 °F /  1.3 °C 30.30in /  1026hPa North 2.9mph /  4.7km/h 5.0mph /  8km/h 15% 0.00in /  0mm 323.0 W/m2
16:17 87.4 °F /  30.8 °C 35.8 °F /  2.1 °C 30.29in /  1025.6hPa ENE 2.0mph /  3.2km/h 7.0mph /  11.3km/h 16% 0.00in /  0mm 297.0 W/m2
16:23 86.9 °F /  30.5 °C 35.2 °F /  1.8 °C 30.30in /  1026hPa ENE 0.9mph /  1.4km/h 7.0mph /  11.3km/h 16% 0.00in /  0mm 274.0 W/m2
16:29 86.4 °F /  30.2 °C 36.3 °F /  2.4 °C 30.30in /  1026hPa East 2.9mph /  4.7km/h 3.0mph /  4.8km/h 17% 0.00in /  0mm 232.0 W/m2
16:36 86.2 °F /  30.1 °C 36.3 °F /  2.4 °C 30.29in /  1025.6hPa Calm   1.0mph /  1.6km/h 17% 0.00in /  0mm 207.0 W/m2
16:42 86.2 °F /  30.1 °C 36.3 °F /  2.4 °C 30.30in /  1026hPa North 2.9mph /  4.7km/h 6.0mph /  9.7km/h 17% 0.00in /  0mm 197.0 W/m2
16:48 85.6 °F /  29.8 °C 35.8 °F /  2.1 °C 30.30in /  1026hPa Calm     17% 0.00in /  0mm 137.0 W/m2
16:54 85.3 °F /  29.6 °C 35.6 °F /  2 °C 30.30in /  1026hPa NE 2.0mph /  3.2km/h 7.0mph /  11.3km/h 17% 0.00in /  0mm 125.0 W/m2
17:00 84.7 °F /  29.3 °C 35.1 °F /  1.7 °C 30.30in /  1026hPa Calm   4.0mph /  6.4km/h 17% 0.00in /  0mm 109.0 W/m2
17:06 84.4 °F /  29.1 °C 36.3 °F /  2.4 °C 30.30in /  1026hPa Calm   3.0mph /  4.8km/h 18% 0.00in /  0mm 32.0 W/m2
17:12 83.8 °F /  28.8 °C 35.8 °F /  2.1 °C 30.30in /  1026hPa Calm   2.0mph /  3.2km/h 18% 0.00in /  0mm 26.0 W/m2
17:19 83.1 °F /  28.4 °C 36.7 °F /  2.6 °C 30.30in /  1026hPa Calm   1.0mph /  1.6km/h 19% 0.00in /  0mm 21.0 W/m2
17:25 82.8 °F /  28.2 °C 37.6 °F /  3.1 °C 30.30in /  1026hPa Calm   2.0mph /  3.2km/h 20% 0.00in /  0mm 16.0 W/m2
17:31 82.0 °F /  27.8 °C 37.0 °F /  2.8 °C 30.31in /  1026.3hPa NNE 4.0mph /  6.4km/h 4.0mph /  6.4km/h 20% 0.00in /  0mm 12.0 W/m2
17:37 81.1 °F /  27.3 °C 37.6 °F /  3.1 °C 30.31in /  1026.3hPa East 2.0mph /  3.2km/h 3.0mph /  4.8km/h 21% 0.00in /  0mm 9.0 W/m2
17:43 80.4 °F /  26.9 °C 36.9 °F /  2.7 °C 30.31in /  1026.3hPa NE 0.9mph /  1.4km/h 3.0mph /  4.8km/h 21% 0.00in /  0mm 5.0 W/m2
17:49 79.7 °F /  26.5 °C 36.3 °F /  2.4 °C 30.31in /  1026.3hPa NE 0.9mph /  1.4km/h 3.0mph /  4.8km/h 21% 0.00in /  0mm 0.0 W/m2
17:55 79.0 °F /  26.1 °C 35.8 °F /  2.1 °C 30.32in /  1026.6hPa Calm   3.0mph /  4.8km/h 21% 0.00in /  0mm 0.0 W/m2
18:01 78.4 °F /  25.8 °C 36.5 °F /  2.5 °C 30.32in /  1026.6hPa Calm   2.0mph /  3.2km/h 22% 0.00in /  0mm 0.0 W/m2
18:07 77.9 °F /  25.5 °C 36.0 °F /  2.2 °C 30.32in /  1026.6hPa Calm     22% 0.00in /  0mm 0.0 W/m2
18:14 77.4 °F /  25.2 °C 36.7 °F /  2.6 °C 30.32in /  1026.6hPa Calm   1.0mph /  1.6km/h 23% 0.00in /  0mm 0.0 W/m2
18:20 76.6 °F /  24.8 °C 37.2 °F /  2.9 °C 30.32in /  1026.6hPa Calm   1.0mph /  1.6km/h 24% 0.00in /  0mm 0.0 W/m2
18:26 75.9 °F /  24.4 °C 37.6 °F /  3.1 °C 30.32in /  1026.6hPa Calm     25% 0.00in /  0mm 0.0 W/m2
18:32 75.4 °F /  24.1 °C 38.1 °F /  3.4 °C 30.33in /  1027hPa Calm     26% 0.00in /  0mm 0.0 W/m2
18:38 74.7 °F /  23.7 °C 37.6 °F /  3.1 °C 30.33in /  1027hPa Calm   1.0mph /  1.6km/h 26% 0.00in /  0mm 0.0 W/m2
18:44 73.9 °F /  23.3 °C 36.9 °F /  2.7 °C 30.34in /  1027.3hPa Calm     26% 0.00in /  0mm 0.0 W/m2
18:50 73.2 °F /  22.9 °C 37.2 °F /  2.9 °C 30.34in /  1027.3hPa Calm     27% 0.00in /  0mm 0.0 W/m2
18:56 72.7 °F /  22.6 °C 37.8 °F /  3.2 °C 30.34in /  1027.3hPa Calm     28% 0.00in /  0mm 0.0 W/m2
19:03 72.1 °F /  22.3 °C 37.2 °F /  2.9 °C 30.34in /  1027.3hPa Calm   1.0mph /  1.6km/h 28% 0.00in /  0mm 0.0 W/m2
19:09 71.6 °F /  22 °C 36.7 °F /  2.6 °C 30.34in /  1027.3hPa Calm   2.0mph /  3.2km/h 28% 0.00in /  0mm 0.0 W/m2
19:15 71.1 °F /  21.7 °C 37.2 °F /  2.9 °C 30.34in /  1027.3hPa Calm   2.0mph /  3.2km/h 29% 0.00in /  0mm 0.0 W/m2
19:21 70.7 °F /  21.5 °C 36.9 °F /  2.7 °C 30.35in /  1027.7hPa Calm     29% 0.00in /  0mm 0.0 W/m2
19:27 70.3 °F /  21.3 °C 37.4 °F /  3 °C 30.35in /  1027.7hPa Calm   1.0mph /  1.6km/h 30% 0.00in /  0mm 0.0 W/m2
19:33 70.0 °F /  21.1 °C 37.0 °F /  2.8 °C 30.35in /  1027.7hPa Calm   1.0mph /  1.6km/h 30% 0.00in /  0mm 0.0 W/m2
19:39 69.4 °F /  20.8 °C 36.7 °F /  2.6 °C 30.35in /  1027.7hPa Calm   1.0mph /  1.6km/h 30% 0.00in /  0mm 0.0 W/m2
19:46 69.1 °F /  20.6 °C 37.2 °F /  2.9 °C 30.35in /  1027.7hPa Calm   1.0mph /  1.6km/h 31% 0.00in /  0mm 0.0 W/m2
19:52 68.7 °F /  20.4 °C 37.6 °F /  3.1 °C 30.35in /  1027.7hPa Calm   1.0mph /  1.6km/h 32% 0.00in /  0mm 0.0 W/m2
19:58 68.4 °F /  20.2 °C 37.4 °F /  3 °C 30.36in /  1028hPa Calm   1.0mph /  1.6km/h 32% 0.00in /  0mm 0.0 W/m2
20:04 67.8 °F /  19.9 °C 36.9 °F /  2.7 °C 30.36in /  1028hPa Calm     32% 0.00in /  0mm 0.0 W/m2
20:10 67.6 °F /  19.8 °C 36.7 °F /  2.6 °C 30.36in /  1028hPa Calm     32% 0.00in /  0mm 0.0 W/m2
20:16 67.3 °F /  19.6 °C 36.5 °F /  2.5 °C 30.36in /  1028hPa Calm     32% 0.00in /  0mm 0.0 W/m2
20:22 66.9 °F /  19.4 °C 35.2 °F /  1.8 °C 30.37in /  1028.3hPa Calm   1.0mph /  1.6km/h 31% 0.00in /  0mm 0.0 W/m2
20:28 67.1 °F /  19.5 °C 36.3 °F /  2.4 °C 30.37in /  1028.3hPa Calm     32% 0.00in /  0mm 0.0 W/m2
20:35 66.9 °F /  19.4 °C 36.9 °F /  2.7 °C 30.37in /  1028.3hPa Calm   1.0mph /  1.6km/h 33% 0.00in /  0mm 0.0 W/m2
20:41 66.7 °F /  19.3 °C 36.7 °F /  2.6 °C 30.37in /  1028.3hPa Calm     33% 0.00in /  0mm 0.0 W/m2
20:47 66.6 °F /  19.2 °C 35.8 °F /  2.1 °C 30.37in /  1028.3hPa Calm     32% 0.00in /  0mm 0.0 W/m2
20:53 66.4 °F /  19.1 °C 35.6 °F /  2 °C 30.37in /  1028.3hPa Calm     32% 0.00in /  0mm 0.0 W/m2
20:59 66.0 °F /  18.9 °C 36.1 °F /  2.3 °C 30.37in /  1028.3hPa Calm     33% 0.00in /  0mm 0.0 W/m2
21:05 65.8 °F /  18.8 °C 36.0 °F /  2.2 °C 30.37in /  1028.3hPa Calm   1.0mph /  1.6km/h 33% 0.00in /  0mm 0.0 W/m2
21:11 65.5 °F /  18.6 °C 35.6 °F /  2 °C 30.38in /  1028.7hPa Calm     33% 0.00in /  0mm 0.0 W/m2
21:17 65.1 °F /  18.4 °C 35.2 °F /  1.8 °C 30.38in /  1028.7hPa Calm   2.0mph /  3.2km/h 33% 0.00in /  0mm 0.0 W/m2
21:24 65.1 °F /  18.4 °C 35.2 °F /  1.8 °C 30.38in /  1028.7hPa Calm   2.0mph /  3.2km/h 33% 0.00in /  0mm 0.0 W/m2
21:30 65.1 °F /  18.4 °C 35.2 °F /  1.8 °C 30.38in /  1028.7hPa Calm     33% 0.00in /  0mm 0.0 W/m2
21:36 64.9 °F /  18.3 °C 35.1 °F /  1.7 °C 30.38in /  1028.7hPa Calm   1.0mph /  1.6km/h 33% 0.00in /  0mm 0.0 W/m2
21:42 64.8 °F /  18.2 °C 35.1 °F /  1.7 °C 30.38in /  1028.7hPa Calm   1.0mph /  1.6km/h 33% 0.00in /  0mm 0.0 W/m2
21:48 64.6 °F /  18.1 °C 34.9 °F /  1.6 °C 30.38in /  1028.7hPa Calm   1.0mph /  1.6km/h 33% 0.00in /  0mm 0.0 W/m2
21:54 64.6 °F /  18.1 °C 34.9 °F /  1.6 °C 30.38in /  1028.7hPa ENE 0.9mph /  1.4km/h 1.0mph /  1.6km/h 33% 0.00in /  0mm 0.0 W/m2
22:00 64.8 °F /  18.2 °C 35.1 °F /  1.7 °C 30.38in /  1028.7hPa East 2.9mph /  4.7km/h 5.0mph /  8km/h 33% 0.00in /  0mm 0.0 W/m2
22:07 64.8 °F /  18.2 °C 35.1 °F /  1.7 °C 30.38in /  1028.7hPa Calm   3.0mph /  4.8km/h 33% 0.00in /  0mm 0.0 W/m2
22:13 64.6 °F /  18.1 °C 35.6 °F /  2 °C 30.38in /  1028.7hPa NE 0.9mph /  1.4km/h 2.0mph /  3.2km/h 34% 0.00in /  0mm 0.0 W/m2
22:19 64.2 °F /  17.9 °C 36.0 °F /  2.2 °C 30.38in /  1028.7hPa Calm   3.0mph /  4.8km/h 35% 0.00in /  0mm 0.0 W/m2
22:25 64.0 °F /  17.8 °C 35.8 °F /  2.1 °C 30.38in /  1028.7hPa Calm   1.0mph /  1.6km/h 35% 0.00in /  0mm 0.0 W/m2
22:31 63.9 °F /  17.7 °C 35.6 °F /  2 °C 30.38in /  1028.7hPa ENE 0.9mph /  1.4km/h 1.0mph /  1.6km/h 35% 0.00in /  0mm 0.0 W/m2
22:37 63.5 °F /  17.5 °C 35.4 °F /  1.9 °C 30.38in /  1028.7hPa Calm   1.0mph /  1.6km/h 35% 0.00in /  0mm 0.0 W/m2
22:43 63.3 °F /  17.4 °C 35.2 °F /  1.8 °C 30.39in /  1029hPa Calm   1.0mph /  1.6km/h 35% 0.00in /  0mm 0.0 W/m2
22:49 63.1 °F /  17.3 °C 35.8 °F /  2.1 °C 30.39in /  1029hPa Calm   1.0mph /  1.6km/h 36% 0.00in /  0mm 0.0 W/m2
22:56 62.8 °F /  17.1 °C 35.4 °F /  1.9 °C 30.39in /  1029hPa Calm   2.0mph /  3.2km/h 36% 0.00in /  0mm 0.0 W/m2
23:02 62.6 °F /  17 °C 36.0 °F /  2.2 °C 30.39in /  1029hPa Calm   1.0mph /  1.6km/h 37% 0.00in /  0mm 0.0 W/m2
23:08 62.2 °F /  16.8 °C 35.6 °F /  2 °C 30.39in /  1029hPa Calm   2.0mph /  3.2km/h 37% 0.00in /  0mm 0.0 W/m2
23:14 62.1 °F /  16.7 °C 35.4 °F /  1.9 °C 30.39in /  1029hPa Calm   2.0mph /  3.2km/h 37% 0.00in /  0mm 0.0 W/m2
23:20 61.9 °F /  16.6 °C 36.0 °F /  2.2 °C 30.39in /  1029hPa Calm   1.0mph /  1.6km/h 38% 0.00in /  0mm 0.0 W/m2
23:26 61.5 °F /  16.4 °C 35.6 °F /  2 °C 30.39in /  1029hPa Calm   1.0mph /  1.6km/h 38% 0.00in /  0mm 0.0 W/m2
23:32 61.3 °F /  16.3 °C 36.1 °F /  2.3 °C 30.39in /  1029hPa Calm   2.0mph /  3.2km/h 39% 0.00in /  0mm 0.0 W/m2
23:38 61.2 °F /  16.2 °C 36.0 °F /  2.2 °C 30.39in /  1029hPa Calm   3.0mph /  4.8km/h 39% 0.00in /  0mm 0.0 W/m2
23:44 61.0 °F /  16.1 °C 35.8 °F /  2.1 °C 30.39in /  1029hPa Calm   2.0mph /  3.2km/h 39% 0.00in /  0mm 0.0 W/m2
23:50 60.6 °F /  15.9 °C 35.6 °F /  2 °C 30.39in /  1029hPa Calm   2.0mph /  3.2km/h 39% 0.00in /  0mm 0.0 W/m2
23:56 60.6 °F /  15.9 °C 36.1 °F /  2.3 °C 30.39in /  1029hPa ESE 0.9mph /  1.4km/h 1.0mph /  1.6km/h 40% 0.00in /  0mm 0.0 W/m2
Olympia, Windhoek, Namibia
Compliments of Weather Underground - 3 mb